createdAt,value
2019-03-11T00:00:06.959Z,4.32
2019-03-11T00:01:11.094Z,4.32
2019-03-11T00:02:15.363Z,4.31
2019-03-11T00:03:19.473Z,4.29
2019-03-11T00:04:24.415Z,4.28
2019-03-11T00:05:27.823Z,4.27
2019-03-11T00:06:31.967Z,4.26
2019-03-11T00:07:36.043Z,4.25
2019-03-11T00:08:40.258Z,4.23
2019-03-11T00:09:44.431Z,4.22
2019-03-11T00:10:48.716Z,4.21
2019-03-11T00:11:53.009Z,4.20
2019-03-11T00:12:57.106Z,4.17
2019-03-11T00:14:01.256Z,4.15
2019-03-11T00:15:05.489Z,4.13
2019-03-11T00:16:09.709Z,4.12
2019-03-11T00:17:13.802Z,4.13
2019-03-11T00:18:17.861Z,4.14
2019-03-11T00:19:25.193Z,4.16
2019-03-11T00:20:28.386Z,4.15
2019-03-11T00:21:32.503Z,4.14
2019-03-11T00:22:36.667Z,4.14
2019-03-11T00:23:40.925Z,4.15
2019-03-11T00:24:45.136Z,4.16
2019-03-11T00:25:49.286Z,4.17
2019-03-11T00:26:53.423Z,4.15
2019-03-11T00:27:57.610Z,4.10
2019-03-11T00:29:01.670Z,4.07
2019-03-11T00:30:05.852Z,4.06
2019-03-11T00:31:10.145Z,4.07
2019-03-11T00:32:14.208Z,4.09
2019-03-11T00:33:18.434Z,4.10
2019-03-11T00:34:22.543Z,4.09
2019-03-11T00:35:26.669Z,4.09
2019-03-11T00:36:30.972Z,4.11
2019-03-11T00:37:35.150Z,4.13
2019-03-11T00:38:39.416Z,4.14
2019-03-11T00:39:43.585Z,4.14
2019-03-11T00:40:47.706Z,4.15
2019-03-11T00:41:51.833Z,4.14
2019-03-11T00:42:56.084Z,4.14
2019-03-11T00:44:00.302Z,4.12
2019-03-11T00:45:04.429Z,4.12
2019-03-11T00:46:08.484Z,4.11
2019-03-11T00:47:12.683Z,4.11
2019-03-11T00:48:16.934Z,4.12
2019-03-11T00:49:20.998Z,4.12
2019-03-11T00:50:25.160Z,4.11
2019-03-11T00:51:29.431Z,4.10
2019-03-11T00:52:33.574Z,4.09
2019-03-11T00:53:37.755Z,4.04
2019-03-11T00:54:41.927Z,4.00
2019-03-11T00:55:45.958Z,3.96
2019-03-11T00:56:50.332Z,3.94
2019-03-11T00:57:54.523Z,3.93
2019-03-11T00:58:58.565Z,3.94
2019-03-11T01:00:02.698Z,3.93
2019-03-11T01:01:07.034Z,3.91
2019-03-11T01:02:11.108Z,3.90
2019-03-11T01:03:15.377Z,3.89
2019-03-11T01:04:19.526Z,3.88
2019-03-11T01:05:23.720Z,3.89
2019-03-11T01:06:27.800Z,3.90
2019-03-11T01:07:32.114Z,3.91
2019-03-11T01:08:36.304Z,3.92
2019-03-11T01:09:40.416Z,3.93
2019-03-11T01:10:44.760Z,3.94
2019-03-11T01:11:49.043Z,3.94
2019-03-11T01:12:53.105Z,3.94
2019-03-11T01:13:57.248Z,3.92
2019-03-11T01:15:01.526Z,3.91
2019-03-11T01:16:05.733Z,3.92
2019-03-11T01:17:09.864Z,3.94
2019-03-11T01:18:14.002Z,3.95
2019-03-11T01:19:18.236Z,3.95
2019-03-11T01:20:22.427Z,3.96
2019-03-11T01:21:26.672Z,3.98
2019-03-11T01:22:30.739Z,3.99
2019-03-11T01:23:34.924Z,4.00
2019-03-11T01:24:39.163Z,4.01
2019-03-11T01:25:43.368Z,4.02
2019-03-11T01:26:47.685Z,4.04
2019-03-11T01:27:51.759Z,4.06
2019-03-11T01:28:55.915Z,4.09
2019-03-11T01:30:00.194Z,4.11
2019-03-11T01:31:04.231Z,4.12
2019-03-11T01:32:08.474Z,4.12
2019-03-11T01:33:12.786Z,4.09
2019-03-11T01:34:16.932Z,4.06
2019-03-11T01:35:21.014Z,4.04
2019-03-11T01:36:25.235Z,4.03
2019-03-11T01:37:29.382Z,4.03
2019-03-11T01:38:33.567Z,4.02
2019-03-11T01:39:37.774Z,3.99
2019-03-11T01:40:41.854Z,3.97
2019-03-11T01:41:46.076Z,3.97
2019-03-11T01:42:51.726Z,3.97
2019-03-11T01:43:54.350Z,3.98
2019-03-11T01:44:58.580Z,3.98
2019-03-11T01:46:02.668Z,3.95
2019-03-11T01:47:06.836Z,3.94
2019-03-11T01:48:10.986Z,3.96
2019-03-11T01:49:15.117Z,4.00
2019-03-11T01:50:19.270Z,4.04
2019-03-11T01:51:23.607Z,4.09
2019-03-11T01:52:27.676Z,4.14
2019-03-11T01:53:31.961Z,4.18
2019-03-11T01:54:36.063Z,4.21
2019-03-11T01:55:40.227Z,4.25
2019-03-11T01:56:44.400Z,4.30
2019-03-11T01:57:48.591Z,4.35
2019-03-11T01:58:55.851Z,4.39
2019-03-11T01:59:59.074Z,4.43
2019-03-11T02:01:03.155Z,4.44
2019-03-11T02:02:07.408Z,4.47
2019-03-11T02:03:11.507Z,4.50
2019-03-11T02:04:15.781Z,4.52
2019-03-11T02:05:19.900Z,4.54
2019-03-11T02:06:24.160Z,4.56
2019-03-11T02:07:28.459Z,4.58
2019-03-11T02:08:32.639Z,4.60
2019-03-11T02:09:36.927Z,4.63
2019-03-11T02:10:41.078Z,4.63
2019-03-11T02:11:45.107Z,4.64
2019-03-11T02:12:49.287Z,4.64
2019-03-11T02:13:53.582Z,4.65
2019-03-11T02:14:57.775Z,4.67
2019-03-11T02:16:01.897Z,4.69
2019-03-11T02:17:06.039Z,4.70
2019-03-11T02:18:10.284Z,4.70
2019-03-11T02:19:14.435Z,4.69
2019-03-11T02:20:18.596Z,4.69
2019-03-11T02:21:22.880Z,4.69
2019-03-11T02:22:27.173Z,4.68
2019-03-11T02:23:31.319Z,4.64
2019-03-11T02:24:35.535Z,4.58
2019-03-11T02:25:39.731Z,4.50
2019-03-11T02:26:43.961Z,4.46
2019-03-11T02:27:48.275Z,4.42
2019-03-11T02:28:52.417Z,4.39
2019-03-11T02:29:56.592Z,4.38
2019-03-11T02:31:00.667Z,4.37
2019-03-11T02:32:04.812Z,4.35
2019-03-11T02:33:09.079Z,4.35
2019-03-11T02:34:13.274Z,4.33
2019-03-11T02:35:17.383Z,4.33
2019-03-11T02:36:21.420Z,4.33
2019-03-11T02:37:25.749Z,4.33
2019-03-11T02:38:30.068Z,4.33
2019-03-11T02:39:34.094Z,4.33
2019-03-11T02:40:38.327Z,4.35
2019-03-11T02:41:42.429Z,4.36
2019-03-11T02:42:46.656Z,4.36
2019-03-11T02:43:50.754Z,4.34
2019-03-11T02:44:54.966Z,4.33
2019-03-11T02:45:59.221Z,4.32
2019-03-11T02:47:03.384Z,4.31
2019-03-11T02:48:07.537Z,4.31
2019-03-11T02:49:11.714Z,4.31
2019-03-11T02:50:15.744Z,4.30
2019-03-11T02:51:20.092Z,4.30
2019-03-11T02:52:24.265Z,4.31
2019-03-11T02:53:28.387Z,4.33
2019-03-11T02:54:32.490Z,4.36
2019-03-11T02:55:36.679Z,4.40
2019-03-11T02:56:40.955Z,4.44
2019-03-11T02:57:45.049Z,4.48
2019-03-11T02:58:49.138Z,4.52
2019-03-11T02:59:53.365Z,4.56
2019-03-11T03:00:57.619Z,4.59
2019-03-11T03:02:01.857Z,4.62
2019-03-11T03:03:06.011Z,4.64
2019-03-11T03:04:10.223Z,4.67
2019-03-11T03:05:14.474Z,4.69
2019-03-11T03:06:18.581Z,4.68
2019-03-11T03:07:22.829Z,4.69
2019-03-11T03:08:27.070Z,4.70
2019-03-11T03:09:32.216Z,4.72
2019-03-11T03:10:35.446Z,4.74
2019-03-11T03:11:39.637Z,4.76
2019-03-11T03:12:43.804Z,4.78
2019-03-11T03:13:48.023Z,4.80
2019-03-11T03:14:52.253Z,4.81
2019-03-11T03:15:56.347Z,4.82
2019-03-11T03:17:00.490Z,4.83
2019-03-11T03:18:04.647Z,4.85
2019-03-11T03:19:08.808Z,4.85
2019-03-11T03:20:13.107Z,4.86
2019-03-11T03:21:17.287Z,4.86
2019-03-11T03:22:21.562Z,4.86
2019-03-11T03:23:28.782Z,4.85
2019-03-11T03:24:31.842Z,4.85
2019-03-11T03:25:36.261Z,4.86
2019-03-11T03:26:40.324Z,4.87
2019-03-11T03:27:44.662Z,4.85
2019-03-11T03:28:48.809Z,4.82
2019-03-11T03:29:53.045Z,4.78
2019-03-11T03:30:57.245Z,4.76
2019-03-11T03:32:01.361Z,4.76
2019-03-11T03:33:05.607Z,4.74
2019-03-11T03:34:09.803Z,4.73
2019-03-11T03:35:13.915Z,4.73
2019-03-11T03:36:18.081Z,4.74
2019-03-11T03:37:22.297Z,4.75
2019-03-11T03:38:31.032Z,4.77
2019-03-11T03:39:30.607Z,4.79
2019-03-11T03:40:34.802Z,4.81
2019-03-11T03:41:39.056Z,4.82
2019-03-11T03:42:43.324Z,4.83
2019-03-11T03:43:47.356Z,4.84
2019-03-11T03:44:51.535Z,4.84
2019-03-11T03:45:55.670Z,4.83
2019-03-11T03:46:59.897Z,4.82
2019-03-11T03:48:04.211Z,4.79
2019-03-11T03:49:08.258Z,4.77
2019-03-11T03:50:12.600Z,4.74
2019-03-11T03:51:16.697Z,4.70
2019-03-11T03:52:20.808Z,4.69
2019-03-11T03:53:25.045Z,4.69
2019-03-11T03:54:29.267Z,4.68
2019-03-11T03:55:33.351Z,4.67
2019-03-11T03:56:37.656Z,4.65
2019-03-11T03:57:41.773Z,4.67
2019-03-11T03:58:46.061Z,4.67
2019-03-11T03:59:50.205Z,4.66
2019-03-11T04:00:54.458Z,4.66
2019-03-11T04:01:58.548Z,4.67
2019-03-11T04:03:02.699Z,4.67
2019-03-11T04:04:06.875Z,4.69
2019-03-11T04:05:11.157Z,4.71
2019-03-11T04:06:15.210Z,4.72
2019-03-11T04:07:19.522Z,4.73
2019-03-11T04:08:23.539Z,4.75
2019-03-11T04:09:27.910Z,4.77
2019-03-11T04:10:33.175Z,4.77
2019-03-11T04:11:36.177Z,4.77
2019-03-11T04:12:40.456Z,4.78
2019-03-11T04:13:44.740Z,4.78
2019-03-11T04:14:48.777Z,4.80
2019-03-11T04:15:52.952Z,4.80
2019-03-11T04:16:57.130Z,4.81
2019-03-11T04:18:01.267Z,4.79
2019-03-11T04:19:05.432Z,4.77
2019-03-11T04:20:09.834Z,4.75
2019-03-11T04:21:13.938Z,4.75
2019-03-11T04:22:18.058Z,4.75
2019-03-11T04:23:22.400Z,4.75
2019-03-11T04:24:26.435Z,4.75
2019-03-11T04:25:30.571Z,4.75
2019-03-11T04:26:34.840Z,4.74
2019-03-11T04:27:39.068Z,4.73
2019-03-11T04:28:43.295Z,4.70
2019-03-11T04:29:47.377Z,4.68
2019-03-11T04:30:51.549Z,4.67
2019-03-11T04:31:55.716Z,4.66
2019-03-11T04:32:59.858Z,4.64
2019-03-11T04:34:04.013Z,4.63
2019-03-11T04:35:08.317Z,4.63
2019-03-11T04:36:12.529Z,4.63
2019-03-11T04:37:16.770Z,4.63
2019-03-11T04:38:20.949Z,4.64
2019-03-11T04:39:25.160Z,4.65
2019-03-11T04:40:29.277Z,4.65
2019-03-11T04:41:33.414Z,4.64
2019-03-11T04:42:37.670Z,4.65
2019-03-11T04:43:41.960Z,4.65
2019-03-11T04:44:46.108Z,4.65
2019-03-11T04:45:50.222Z,4.65
2019-03-11T04:46:54.408Z,4.65
2019-03-11T04:47:58.609Z,4.65
2019-03-11T04:49:02.867Z,4.65
2019-03-11T04:50:07.076Z,4.65
2019-03-11T04:51:11.252Z,4.65
2019-03-11T04:52:15.459Z,4.65
2019-03-11T04:53:19.824Z,4.66
2019-03-11T04:54:23.993Z,4.67
2019-03-11T04:55:28.010Z,4.68
2019-03-11T04:56:32.242Z,4.70
2019-03-11T04:57:36.555Z,4.71
2019-03-11T04:58:40.766Z,4.71
2019-03-11T04:59:44.879Z,4.73
2019-03-11T05:00:49.070Z,4.74
2019-03-11T05:01:53.341Z,4.75
2019-03-11T05:02:57.602Z,4.76
2019-03-11T05:04:01.810Z,4.76
2019-03-11T05:05:05.999Z,4.76
2019-03-11T05:06:10.190Z,4.76
2019-03-11T05:07:14.275Z,4.75
2019-03-11T05:08:18.459Z,4.75
2019-03-11T05:09:22.595Z,4.75
2019-03-11T05:10:26.880Z,4.74
2019-03-11T05:11:31.085Z,4.74
2019-03-11T05:12:35.227Z,4.74
2019-03-11T05:13:39.388Z,4.74
2019-03-11T05:14:43.730Z,4.73
2019-03-11T05:15:47.907Z,4.73
2019-03-11T05:16:52.099Z,4.73
2019-03-11T05:17:56.416Z,4.73
2019-03-11T05:19:00.490Z,4.74
2019-03-11T05:20:04.803Z,4.74
2019-03-11T05:21:08.862Z,4.73
2019-03-11T05:22:13.103Z,4.72
2019-03-11T05:23:17.357Z,4.72
2019-03-11T05:24:21.648Z,4.72
2019-03-11T05:25:25.631Z,4.72
2019-03-11T05:26:29.839Z,4.71
2019-03-11T05:27:33.942Z,4.70
2019-03-11T05:28:38.144Z,4.69
2019-03-11T05:29:42.316Z,4.68
2019-03-11T05:30:46.649Z,4.67
2019-03-11T05:31:50.645Z,4.67
2019-03-11T05:32:54.883Z,4.66
2019-03-11T05:33:59.254Z,4.65
2019-03-11T05:35:03.316Z,4.64
2019-03-11T05:36:07.496Z,4.63
2019-03-11T05:37:11.659Z,4.62
2019-03-11T05:38:15.833Z,4.62
2019-03-11T05:39:20.134Z,4.62
2019-03-11T05:40:24.347Z,4.63
2019-03-11T05:41:28.462Z,4.63
2019-03-11T05:42:32.719Z,4.64
2019-03-11T05:43:36.935Z,4.63
2019-03-11T05:44:41.034Z,4.61
2019-03-11T05:45:45.151Z,4.60
2019-03-11T05:46:49.468Z,4.59
2019-03-11T05:47:53.708Z,4.57
2019-03-11T05:48:57.829Z,4.55
2019-03-11T05:50:08.080Z,4.52
2019-03-11T05:51:10.907Z,4.51
2019-03-11T05:52:15.015Z,4.50
2019-03-11T05:53:19.146Z,4.49
2019-03-11T05:54:23.327Z,4.49
2019-03-11T05:55:27.588Z,4.46
2019-03-11T05:56:31.688Z,4.43
2019-03-11T05:57:35.964Z,4.41
2019-03-11T05:58:40.041Z,4.41
2019-03-11T05:59:44.327Z,4.39
2019-03-11T06:00:48.421Z,4.38
2019-03-11T06:01:52.480Z,4.37
2019-03-11T06:02:56.683Z,4.36
2019-03-11T06:04:00.852Z,4.36
2019-03-11T06:05:04.942Z,4.36
2019-03-11T06:06:09.291Z,4.37
2019-03-11T06:07:13.385Z,4.38
2019-03-11T06:08:17.729Z,4.39
2019-03-11T06:09:22.008Z,4.39
2019-03-11T06:10:25.966Z,4.39
2019-03-11T06:11:30.233Z,4.39
2019-03-11T06:12:34.345Z,4.37
2019-03-11T06:13:38.602Z,4.35
2019-03-11T06:14:42.637Z,4.34
2019-03-11T06:15:46.747Z,4.32
2019-03-11T06:16:51.023Z,4.32
2019-03-11T06:17:55.116Z,4.30
2019-03-11T06:19:00.219Z,4.26
2019-03-11T06:20:04.089Z,4.25
2019-03-11T06:21:08.275Z,4.23
2019-03-11T06:22:12.370Z,4.22
2019-03-11T06:23:16.628Z,4.21
2019-03-11T06:24:20.657Z,4.20
2019-03-11T06:25:25.075Z,4.18
2019-03-11T06:26:29.124Z,4.18
2019-03-11T06:27:33.280Z,4.17
2019-03-11T06:28:37.536Z,4.18
2019-03-11T06:29:42.587Z,4.17
2019-03-11T06:30:49.420Z,4.17
2019-03-11T06:31:52.596Z,4.19
2019-03-11T06:32:56.768Z,4.20
2019-03-11T06:34:01.064Z,4.20
2019-03-11T06:35:05.348Z,4.20
2019-03-11T06:36:09.594Z,4.20
2019-03-11T06:37:13.767Z,4.21
2019-03-11T06:38:17.778Z,4.22
2019-03-11T06:39:22.069Z,4.23
2019-03-11T06:40:26.116Z,4.24
2019-03-11T06:41:30.399Z,4.24
2019-03-11T06:42:34.633Z,4.24
2019-03-11T06:43:38.848Z,4.24
2019-03-11T06:44:42.819Z,4.23
2019-03-11T06:45:47.041Z,4.23
2019-03-11T06:46:51.307Z,4.23
2019-03-11T06:47:55.408Z,4.24
2019-03-11T06:48:59.526Z,4.24
2019-03-11T06:50:03.659Z,4.25
2019-03-11T06:51:07.849Z,4.26
2019-03-11T06:52:12.015Z,4.27
2019-03-11T06:53:16.153Z,4.26
2019-03-11T06:54:20.385Z,4.27
2019-03-11T06:55:24.571Z,4.28
2019-03-11T06:56:28.698Z,4.28
2019-03-11T06:57:33.062Z,4.28
2019-03-11T06:58:37.097Z,4.30
2019-03-11T06:59:41.372Z,4.32
2019-03-11T07:00:45.435Z,4.32
2019-03-11T07:01:49.639Z,4.32
2019-03-11T07:02:53.989Z,4.30
2019-03-11T07:03:58.160Z,4.29
2019-03-11T07:05:02.912Z,4.28
2019-03-11T07:06:06.571Z,4.26
2019-03-11T07:07:10.629Z,4.26
2019-03-11T07:08:14.906Z,4.25
2019-03-11T07:09:19.654Z,4.23
2019-03-11T07:10:23.470Z,4.23
2019-03-11T07:11:27.653Z,4.20
2019-03-11T07:12:31.939Z,4.19
2019-03-11T07:13:36.061Z,4.15
2019-03-11T07:14:40.136Z,4.13
2019-03-11T07:15:44.329Z,4.12
2019-03-11T07:16:48.631Z,4.13
2019-03-11T07:17:52.719Z,4.15
2019-03-11T07:18:56.864Z,4.16
2019-03-11T07:20:01.034Z,4.19
2019-03-11T07:21:05.233Z,4.22
2019-03-11T07:22:09.407Z,4.23
2019-03-11T07:23:13.643Z,4.24
2019-03-11T07:24:17.792Z,4.26
2019-03-11T07:25:22.030Z,4.27
2019-03-11T07:26:26.150Z,4.28
2019-03-11T07:27:30.277Z,4.29
2019-03-11T07:28:34.558Z,4.29
2019-03-11T07:29:38.675Z,4.30
2019-03-11T07:30:42.801Z,4.31
2019-03-11T07:31:47.075Z,4.33
2019-03-11T07:32:51.105Z,4.36
2019-03-11T07:33:55.308Z,4.38
2019-03-11T07:35:07.969Z,4.40
2019-03-11T07:36:03.684Z,4.43
2019-03-11T07:37:07.908Z,4.44
2019-03-11T07:38:12.126Z,4.47
2019-03-11T07:39:16.254Z,4.51
2019-03-11T07:40:29.350Z,4.54
2019-03-11T07:41:24.605Z,4.57
2019-03-11T07:42:28.718Z,4.60
2019-03-11T07:43:32.890Z,4.64
2019-03-11T07:44:37.056Z,4.66
2019-03-11T07:45:41.168Z,4.69
2019-03-11T07:46:45.839Z,4.69
2019-03-11T07:47:49.705Z,4.71
2019-03-11T07:48:53.893Z,4.73
2019-03-11T07:49:58.115Z,4.74
2019-03-11T07:51:02.323Z,4.75
2019-03-11T07:52:06.542Z,4.76
2019-03-11T07:53:10.653Z,4.78
2019-03-11T07:54:14.915Z,4.79
2019-03-11T07:55:19.133Z,4.81
2019-03-11T07:56:23.201Z,4.83
2019-03-11T07:57:27.392Z,4.85
2019-03-11T07:58:31.654Z,4.84
2019-03-11T07:59:35.673Z,4.83
2019-03-11T08:00:39.954Z,4.82
2019-03-11T08:01:44.188Z,4.81
2019-03-11T08:02:48.284Z,4.80
2019-03-11T08:03:52.560Z,4.80
2019-03-11T08:04:56.638Z,4.81
2019-03-11T08:06:00.897Z,4.82
2019-03-11T08:07:05.144Z,4.83
2019-03-11T08:08:09.330Z,4.85
2019-03-11T08:09:13.539Z,4.87
2019-03-11T08:10:17.657Z,4.87
2019-03-11T08:11:21.793Z,4.87
2019-03-11T08:12:26.001Z,4.87
2019-03-11T08:13:30.234Z,4.84
2019-03-11T08:14:34.377Z,4.79
2019-03-11T08:15:38.651Z,4.76
2019-03-11T08:16:42.769Z,4.74
2019-03-11T08:17:46.923Z,4.71
2019-03-11T08:18:51.199Z,4.67
2019-03-11T08:19:55.496Z,4.66
2019-03-11T08:20:59.623Z,4.65
2019-03-11T08:22:03.875Z,4.64
2019-03-11T08:23:07.955Z,4.64
2019-03-11T08:24:12.096Z,4.66
2019-03-11T08:25:16.354Z,4.64
2019-03-11T08:26:20.461Z,4.61
2019-03-11T08:27:24.668Z,4.57
2019-03-11T08:28:28.797Z,4.57
2019-03-11T08:29:32.945Z,4.58
2019-03-11T08:30:37.256Z,4.61
2019-03-11T08:31:41.349Z,4.62
2019-03-11T08:32:45.620Z,4.62
2019-03-11T08:33:49.833Z,4.62
2019-03-11T08:34:53.991Z,4.56
2019-03-11T08:35:58.136Z,4.52
2019-03-11T08:37:02.389Z,4.52
2019-03-11T08:38:06.491Z,4.54
2019-03-11T08:39:10.756Z,4.56
2019-03-11T08:40:14.959Z,4.58
2019-03-11T08:41:19.058Z,4.59
2019-03-11T08:42:23.370Z,4.57
2019-03-11T08:43:27.442Z,4.53
2019-03-11T08:44:31.728Z,4.52
2019-03-11T08:45:35.834Z,4.53
2019-03-11T08:46:40.027Z,4.56
2019-03-11T08:47:44.270Z,4.59
2019-03-11T08:48:48.443Z,4.62
2019-03-11T08:49:52.565Z,4.65
2019-03-11T08:50:56.811Z,4.66
2019-03-11T08:52:01.024Z,4.68
2019-03-11T08:53:05.174Z,4.70
2019-03-11T08:54:09.333Z,4.74
2019-03-11T08:55:13.497Z,4.77
2019-03-11T08:56:17.659Z,4.79
2019-03-11T08:57:21.953Z,4.82
2019-03-11T08:58:26.141Z,4.82
2019-03-11T08:59:30.259Z,4.83
2019-03-11T09:00:34.403Z,4.83
2019-03-11T09:01:38.599Z,4.84
2019-03-11T09:02:42.957Z,4.86
2019-03-11T09:03:48.050Z,4.88
2019-03-11T09:04:51.336Z,4.86
2019-03-11T09:05:55.461Z,4.85
2019-03-11T09:06:59.735Z,4.84
2019-03-11T09:08:03.903Z,4.83
2019-03-11T09:09:08.060Z,4.84
2019-03-11T09:10:12.287Z,4.84
2019-03-11T09:11:16.498Z,4.84
2019-03-11T09:12:20.735Z,4.85
2019-03-11T09:13:24.921Z,4.85
2019-03-11T09:14:29.014Z,4.82
2019-03-11T09:15:33.114Z,4.83
2019-03-11T09:16:37.385Z,4.84
2019-03-11T09:17:41.512Z,4.86
2019-03-11T09:18:45.748Z,4.89
2019-03-11T09:19:49.940Z,4.91
2019-03-11T09:20:54.203Z,4.93
2019-03-11T09:21:58.301Z,4.92
2019-03-11T09:23:02.468Z,4.93
2019-03-11T09:24:06.635Z,4.94
2019-03-11T09:25:10.786Z,4.94
2019-03-11T09:26:15.013Z,4.95
2019-03-11T09:27:19.112Z,4.97
2019-03-11T09:28:23.515Z,4.99
2019-03-11T09:29:27.507Z,5.02
2019-03-11T09:30:31.667Z,5.03
2019-03-11T09:31:35.842Z,5.05
2019-03-11T09:32:40.105Z,5.07
2019-03-11T09:33:47.293Z,5.09
2019-03-11T09:34:50.683Z,5.10
2019-03-11T09:35:54.830Z,5.13
2019-03-11T09:36:59.035Z,5.16
2019-03-11T09:38:04.069Z,5.21
2019-03-11T09:39:07.481Z,5.24
2019-03-11T09:40:11.666Z,5.27
2019-03-11T09:41:15.908Z,5.28
2019-03-11T09:42:20.134Z,5.30
2019-03-11T09:43:27.010Z,5.30
2019-03-11T09:44:28.626Z,5.31
2019-03-11T09:45:32.828Z,5.32
2019-03-11T09:46:37.046Z,5.31
2019-03-11T09:47:41.178Z,5.31
2019-03-11T09:48:45.445Z,5.31
2019-03-11T09:49:49.665Z,5.32
2019-03-11T09:50:53.759Z,5.33
2019-03-11T09:51:58.740Z,5.35
2019-03-11T09:53:02.213Z,5.37
2019-03-11T09:54:06.375Z,5.39
2019-03-11T09:55:10.704Z,5.40
2019-03-11T09:56:14.738Z,5.41
2019-03-11T09:57:19.017Z,5.41
2019-03-11T09:58:23.110Z,5.41
2019-03-11T09:59:27.335Z,5.41
2019-03-11T10:00:31.536Z,5.43
2019-03-11T10:01:35.786Z,5.46
2019-03-11T10:02:51.265Z,5.48
2019-03-11T10:03:44.332Z,5.47
2019-03-11T10:04:48.423Z,5.42
2019-03-11T10:05:52.682Z,5.40
2019-03-11T10:06:56.938Z,5.38
2019-03-11T10:08:01.064Z,5.39
2019-03-11T10:09:05.305Z,5.40
2019-03-11T10:10:09.621Z,5.41
2019-03-11T10:11:13.720Z,5.41
2019-03-11T10:12:17.997Z,5.41
2019-03-11T10:13:22.271Z,5.42
2019-03-11T10:14:26.458Z,5.42
2019-03-11T10:15:30.709Z,5.42
2019-03-11T10:16:34.933Z,5.44
2019-03-11T10:17:39.132Z,5.48
2019-03-11T10:18:43.387Z,5.55
2019-03-11T10:19:47.608Z,5.62
2019-03-11T10:20:51.821Z,5.70
2019-03-11T10:21:56.055Z,5.76
2019-03-11T10:23:00.257Z,5.81
2019-03-11T10:24:04.396Z,5.83
2019-03-11T10:25:08.650Z,5.86
2019-03-11T10:26:12.913Z,5.90
2019-03-11T10:27:17.244Z,5.92
2019-03-11T10:28:21.421Z,5.94
2019-03-11T10:29:25.636Z,5.96
2019-03-11T10:30:29.933Z,5.97
2019-03-11T10:31:34.128Z,5.96
2019-03-11T10:32:40.808Z,5.95
2019-03-11T10:33:42.659Z,5.94
2019-03-11T10:34:46.845Z,5.94
2019-03-11T10:35:51.179Z,5.96
2019-03-11T10:36:55.355Z,6.00
2019-03-11T10:37:59.578Z,6.04
2019-03-11T10:39:03.835Z,6.06
2019-03-11T10:40:08.037Z,6.06
2019-03-11T10:41:12.268Z,6.06
2019-03-11T10:42:16.492Z,6.05
2019-03-11T10:43:20.708Z,6.05
2019-03-11T10:44:24.962Z,6.04
2019-03-11T10:45:31.658Z,6.02
2019-03-11T10:46:33.320Z,6.01
2019-03-11T10:47:37.519Z,6.02
2019-03-11T10:48:41.740Z,6.02
2019-03-11T10:49:46.055Z,6.00
2019-03-11T10:50:50.349Z,6.00
2019-03-11T10:51:54.528Z,5.99
2019-03-11T10:52:58.755Z,5.99
2019-03-11T10:54:02.997Z,6.02
2019-03-11T10:55:07.244Z,6.04
2019-03-11T10:56:11.364Z,6.08
2019-03-11T10:57:15.632Z,6.10
2019-03-11T10:58:19.715Z,6.13
2019-03-11T10:59:24.004Z,6.11
2019-03-11T11:00:28.275Z,6.13
2019-03-11T11:01:32.311Z,6.16
2019-03-11T11:02:36.581Z,6.16
2019-03-11T11:03:40.842Z,6.15
2019-03-11T11:04:45.150Z,6.19
2019-03-11T11:05:49.353Z,6.25
2019-03-11T11:06:53.654Z,6.29
2019-03-11T11:07:57.929Z,6.36
2019-03-11T11:09:02.230Z,6.47
2019-03-11T11:10:06.418Z,6.57
2019-03-11T11:11:10.670Z,6.69
2019-03-11T11:12:14.858Z,6.81
2019-03-11T11:13:19.104Z,6.90
2019-03-11T11:14:23.383Z,6.98
2019-03-11T11:15:27.727Z,7.04
2019-03-11T11:16:31.701Z,7.10
2019-03-11T11:17:35.937Z,7.12
2019-03-11T11:18:40.057Z,7.11
2019-03-11T11:19:44.518Z,7.08
2019-03-11T11:20:48.682Z,7.08
2019-03-11T11:21:52.832Z,7.09
2019-03-11T11:22:56.999Z,7.10
2019-03-11T11:24:01.338Z,7.11
2019-03-11T11:25:05.479Z,7.12
2019-03-11T11:26:09.655Z,7.07
2019-03-11T11:27:13.846Z,7.01
2019-03-11T11:28:18.224Z,6.95
2019-03-11T11:29:22.438Z,6.87
2019-03-11T11:30:26.739Z,6.77
2019-03-11T11:31:31.004Z,6.68
2019-03-11T11:32:35.330Z,6.61
2019-03-11T11:33:39.532Z,6.51
2019-03-11T11:34:43.785Z,6.41
2019-03-11T11:35:47.841Z,6.38
2019-03-11T11:36:52.067Z,6.36
2019-03-11T11:37:56.350Z,6.33
2019-03-11T11:39:00.619Z,6.30
2019-03-11T11:40:04.839Z,6.29
2019-03-11T11:41:09.166Z,6.30
2019-03-11T11:42:13.327Z,6.31
2019-03-11T11:43:17.606Z,6.33
2019-03-11T11:44:21.758Z,6.35
2019-03-11T11:45:25.971Z,6.37
2019-03-11T11:46:30.294Z,6.39
2019-03-11T11:47:34.441Z,6.39
2019-03-11T11:48:38.690Z,6.39
2019-03-11T11:49:42.892Z,6.40
2019-03-11T11:50:49.965Z,6.39
2019-03-11T11:51:53.237Z,6.41
2019-03-11T11:52:57.419Z,6.42
2019-03-11T11:54:01.701Z,6.44
2019-03-11T11:55:05.881Z,6.46
2019-03-11T11:56:10.102Z,6.49
2019-03-11T11:57:14.331Z,6.52
2019-03-11T11:58:18.479Z,6.59
2019-03-11T11:59:22.749Z,6.68
2019-03-11T12:00:26.986Z,6.76
2019-03-11T12:01:31.213Z,6.83
2019-03-11T12:02:35.461Z,6.86
2019-03-11T12:03:39.427Z,6.87
2019-03-11T12:04:43.765Z,6.88
2019-03-11T12:05:47.783Z,6.89
2019-03-11T12:06:52.134Z,6.93
2019-03-11T12:07:56.355Z,6.98
2019-03-11T12:09:00.427Z,7.03
2019-03-11T12:10:04.832Z,7.06
2019-03-11T12:11:08.865Z,7.10
2019-03-11T12:12:13.163Z,7.14
2019-03-11T12:13:17.411Z,7.21
2019-03-11T12:14:21.626Z,7.30
2019-03-11T12:15:25.845Z,7.39
2019-03-11T12:16:30.097Z,7.48
2019-03-11T12:17:34.273Z,7.51
2019-03-11T12:18:38.565Z,7.52
2019-03-11T12:19:42.807Z,7.53
2019-03-11T12:20:47.030Z,7.51
2019-03-11T12:21:51.145Z,7.49
2019-03-11T12:22:55.436Z,7.47
2019-03-11T12:23:59.671Z,7.44
2019-03-11T12:25:03.886Z,7.40
2019-03-11T12:26:08.096Z,7.35
2019-03-11T12:27:12.221Z,7.29
2019-03-11T12:28:16.517Z,7.19
2019-03-11T12:29:20.760Z,7.08
2019-03-11T12:30:24.897Z,6.97
2019-03-11T12:31:29.133Z,6.89
2019-03-11T12:32:33.355Z,6.83
2019-03-11T12:33:37.520Z,6.83
2019-03-11T12:34:41.747Z,6.82
2019-03-11T12:35:45.857Z,6.82
2019-03-11T12:36:50.065Z,6.84
2019-03-11T12:37:54.303Z,6.87
2019-03-11T12:38:58.540Z,6.91
2019-03-11T12:40:02.820Z,6.94
2019-03-11T12:41:07.062Z,6.98
2019-03-11T12:42:11.307Z,7.04
2019-03-11T12:43:15.529Z,7.12
2019-03-11T12:44:19.681Z,7.22
2019-03-11T12:45:23.917Z,7.36
2019-03-11T12:46:28.193Z,7.47
2019-03-11T12:47:32.459Z,7.50
2019-03-11T12:48:36.690Z,7.55
2019-03-11T12:49:40.923Z,7.57
2019-03-11T12:50:45.158Z,7.58
2019-03-11T12:51:50.309Z,7.61
2019-03-11T12:52:53.541Z,7.65
2019-03-11T12:53:57.716Z,7.69
2019-03-11T12:55:02.030Z,7.77
2019-03-11T12:56:06.127Z,7.88
2019-03-11T12:57:10.450Z,7.95
2019-03-11T12:58:14.636Z,8.01
2019-03-11T12:59:18.910Z,8.03
2019-03-11T13:00:23.102Z,8.03
2019-03-11T13:01:27.371Z,8.04
2019-03-11T13:02:31.616Z,8.05
2019-03-11T13:03:35.882Z,8.06
2019-03-11T13:04:40.108Z,8.13
2019-03-11T13:05:44.261Z,8.21
2019-03-11T13:06:48.403Z,8.32
2019-03-11T13:07:52.740Z,8.45
2019-03-11T13:08:56.926Z,8.54
2019-03-11T13:10:01.260Z,8.52
2019-03-11T13:11:05.473Z,8.44
2019-03-11T13:12:09.760Z,8.44
2019-03-11T13:13:13.995Z,8.46
2019-03-11T13:14:18.225Z,8.46
2019-03-11T13:15:22.534Z,8.38
2019-03-11T13:16:26.763Z,8.36
2019-03-11T13:17:30.894Z,8.35
2019-03-11T13:18:35.224Z,8.38
2019-03-11T13:19:39.386Z,8.45
2019-03-11T13:20:43.697Z,8.47
2019-03-11T13:21:47.821Z,8.45
2019-03-11T13:22:51.993Z,8.46
2019-03-11T13:23:56.259Z,8.49
2019-03-11T13:25:00.463Z,8.48
2019-03-11T13:26:04.687Z,8.46
2019-03-11T13:27:08.956Z,8.40
2019-03-11T13:28:13.100Z,8.37
2019-03-11T13:29:17.333Z,8.41
2019-03-11T13:30:21.521Z,8.49
2019-03-11T13:31:25.719Z,8.58
2019-03-11T13:32:29.882Z,8.69
2019-03-11T13:33:34.131Z,8.80
2019-03-11T13:34:38.425Z,8.89
2019-03-11T13:35:42.591Z,8.99
2019-03-11T13:36:46.816Z,9.03
2019-03-11T13:37:51.118Z,9.02
2019-03-11T13:38:55.295Z,8.96
2019-03-11T13:39:59.469Z,8.89
2019-03-11T13:41:03.763Z,8.79
2019-03-11T13:42:07.986Z,8.65
2019-03-11T13:43:12.224Z,8.54
2019-03-11T13:44:16.443Z,8.35
2019-03-11T13:45:20.683Z,8.16
2019-03-11T13:46:24.835Z,8.01
2019-03-11T13:47:29.099Z,7.89
2019-03-11T13:48:33.238Z,7.76
2019-03-11T13:49:37.356Z,7.63
2019-03-11T13:50:41.599Z,7.53
2019-03-11T13:51:45.873Z,7.48
2019-03-11T13:52:49.987Z,7.44
2019-03-11T13:53:54.141Z,7.44
2019-03-11T13:55:09.355Z,7.44
2019-03-11T13:56:02.633Z,7.38
2019-03-11T13:57:06.876Z,7.33
2019-03-11T13:58:11.031Z,7.27
2019-03-11T13:59:15.338Z,7.20
2019-03-11T14:00:19.485Z,7.16
2019-03-11T14:01:23.781Z,7.11
2019-03-11T14:02:27.894Z,7.09
2019-03-11T14:03:32.077Z,7.09
2019-03-11T14:04:36.308Z,7.11
2019-03-11T14:05:40.612Z,7.13
2019-03-11T14:06:44.771Z,7.13
2019-03-11T14:07:48.975Z,7.14
2019-03-11T14:08:53.175Z,7.14
2019-03-11T14:09:57.369Z,7.16
2019-03-11T14:11:01.579Z,7.18
2019-03-11T14:12:05.722Z,7.20
2019-03-11T14:13:10.047Z,7.25
2019-03-11T14:14:14.198Z,7.30